createdAt,value
2023-02-19T00:00:38.113Z,1.70
2023-02-19T00:03:40.762Z,1.50
2023-02-19T00:06:43.925Z,1.60
2023-02-19T00:09:45.514Z,1.73
2023-02-19T00:12:47.140Z,1.55
2023-02-19T00:15:49.543Z,1.83
2023-02-19T00:18:52.312Z,1.45
2023-02-19T00:21:54.657Z,1.50
2023-02-19T00:24:56.210Z,1.50
2023-02-19T00:27:57.771Z,1.38
2023-02-19T00:31:23.737Z,1.33
2023-02-19T00:34:25.481Z,1.20
2023-02-19T00:37:27.117Z,1.30
2023-02-19T00:40:28.706Z,1.10
2023-02-19T00:43:30.402Z,1.20
2023-02-19T00:46:36.302Z,1.10
2023-02-19T00:49:38.073Z,1.20
2023-02-19T00:52:39.944Z,1.20
2023-02-19T00:55:42.137Z,1.23
2023-02-19T00:58:44.049Z,1.20
2023-02-19T01:01:45.816Z,1.20
2023-02-19T01:04:47.549Z,1.08
2023-02-19T01:07:49.160Z,1.20
2023-02-19T01:10:51.038Z,1.20
2023-02-19T01:13:52.913Z,1.40
2023-02-19T01:16:54.520Z,1.20
2023-02-19T01:19:56.083Z,1.10
2023-02-19T01:22:57.700Z,1.27
2023-02-19T01:25:59.433Z,1.30
2023-02-19T01:29:01.337Z,1.40
2023-02-19T01:32:03.015Z,1.07
2023-02-19T01:35:05.431Z,1.00
2023-02-19T01:38:10.424Z,1.00
2023-02-19T01:41:15.801Z,1.00
2023-02-19T01:44:18.414Z,1.10
2023-02-19T01:47:20.390Z,1.10
2023-02-19T01:50:23.199Z,1.00
2023-02-19T01:53:29.872Z,1.10
2023-02-19T01:56:34.497Z,1.10
2023-02-19T01:59:36.672Z,1.20
2023-02-19T02:02:41.084Z,1.10
2023-02-19T02:05:50.434Z,1.20
2023-02-19T02:09:14.103Z,1.10
2023-02-19T02:12:15.821Z,1.10
2023-02-19T02:15:18.386Z,1.20
2023-02-19T02:18:50.906Z,1.10
2023-02-19T02:22:31.059Z,0.90
2023-02-19T02:25:58.875Z,1.10
2023-02-19T02:29:39.080Z,1.15
2023-02-19T02:32:54.461Z,1.00
2023-02-19T02:36:27.014Z,0.80
2023-02-19T02:39:32.209Z,1.00
2023-02-19T02:42:35.392Z,1.00
2023-02-19T02:45:37.593Z,1.00
2023-02-19T02:48:55.507Z,1.10
2023-02-19T02:51:58.350Z,1.10
2023-02-19T02:55:05.741Z,1.10
2023-02-19T02:58:08.731Z,1.20
2023-02-19T03:01:33.815Z,1.27
2023-02-19T03:05:16.460Z,1.30
2023-02-19T03:08:39.953Z,1.20
2023-02-19T03:12:05.061Z,1.20
2023-02-19T03:15:28.988Z,1.20
2023-02-19T03:18:52.081Z,1.00
2023-02-19T03:22:21.196Z,1.20
2023-02-19T03:25:45.404Z,1.10
2023-02-19T03:29:08.414Z,1.20
2023-02-19T03:32:25.111Z,1.40
2023-02-19T03:35:40.186Z,1.10
2023-02-19T03:39:06.805Z,0.98
2023-02-19T03:42:19.507Z,0.90
2023-02-19T03:45:24.481Z,1.00
2023-02-19T03:48:38.208Z,1.10
2023-02-19T03:51:50.669Z,0.98
2023-02-19T03:55:00.696Z,1.00
2023-02-19T03:58:08.948Z,0.80
2023-02-19T04:01:17.662Z,1.00
2023-02-19T04:04:31.759Z,0.85
2023-02-19T04:07:38.130Z,0.90
2023-02-19T04:10:40.979Z,0.90
2023-02-19T04:13:58.698Z,0.87
2023-02-19T04:17:05.453Z,0.90
2023-02-19T04:20:10.232Z,0.90
2023-02-19T04:23:13.745Z,1.00
2023-02-19T04:26:16.106Z,0.80
2023-02-19T04:29:17.761Z,0.90
2023-02-19T04:32:19.426Z,0.90
2023-02-19T04:35:21.061Z,0.90
2023-02-19T04:38:22.707Z,1.00
2023-02-19T04:41:24.321Z,0.90
2023-02-19T04:44:25.918Z,0.90
2023-02-19T04:47:27.578Z,0.93
2023-02-19T04:50:29.258Z,0.90
2023-02-19T04:53:30.978Z,1.05
2023-02-19T04:56:32.641Z,0.85
2023-02-19T04:59:34.207Z,0.90
2023-02-19T05:02:35.989Z,1.00
2023-02-19T05:05:37.707Z,0.90
2023-02-19T05:08:40.195Z,1.00
2023-02-19T05:11:41.905Z,1.10
2023-02-19T05:14:43.718Z,1.00
2023-02-19T05:17:45.319Z,1.08
2023-02-19T05:20:46.910Z,1.00
2023-02-19T05:23:48.472Z,1.00
2023-02-19T05:26:51.138Z,1.10
2023-02-19T05:29:52.728Z,1.00
2023-02-19T05:32:54.303Z,1.10
2023-02-19T05:35:56.423Z,1.20
2023-02-19T05:38:58.787Z,1.30
2023-02-19T05:42:00.395Z,1.20
2023-02-19T05:45:02.023Z,1.63
2023-02-19T05:48:04.624Z,1.40
2023-02-19T05:51:09.492Z,1.38
2023-02-19T05:54:11.362Z,1.60
2023-02-19T05:57:12.971Z,1.60
2023-02-19T06:00:18.236Z,1.60
2023-02-19T06:03:20.103Z,1.70
2023-02-19T06:06:22.207Z,1.88
2023-02-19T06:09:23.880Z,1.98
2023-02-19T06:12:25.607Z,1.85
2023-02-19T06:15:27.310Z,2.10
2023-02-19T06:18:29.017Z,2.10
2023-02-19T06:21:30.801Z,2.15
2023-02-19T06:24:32.523Z,2.17
2023-02-19T06:27:34.198Z,2.20
2023-02-19T06:30:36.469Z,2.47
2023-02-19T06:33:42.462Z,2.25
2023-02-19T06:36:46.566Z,2.00
2023-02-19T06:39:48.258Z,2.03
2023-02-19T06:42:52.919Z,2.20
2023-02-19T06:46:13.020Z,2.20
2023-02-19T06:49:15.381Z,2.20
2023-02-19T06:52:16.985Z,1.98
2023-02-19T06:55:18.651Z,1.90
2023-02-19T06:58:20.243Z,1.80
2023-02-19T07:01:23.150Z,1.70
2023-02-19T07:04:24.878Z,1.83
2023-02-19T07:07:26.542Z,1.80
2023-02-19T07:10:28.186Z,1.83
2023-02-19T07:13:31.022Z,1.42
2023-02-19T07:16:32.772Z,1.53
2023-02-19T07:19:34.433Z,1.50
2023-02-19T07:22:36.117Z,1.63
2023-02-19T07:25:38.942Z,1.55
2023-02-19T07:28:42.295Z,1.60
2023-02-19T07:31:44.201Z,1.50
2023-02-19T07:34:45.876Z,1.58
2023-02-19T07:37:47.485Z,1.40
2023-02-19T07:41:00.348Z,1.30
2023-02-19T07:44:01.987Z,1.42
2023-02-19T07:47:03.600Z,1.50
2023-02-19T07:50:05.503Z,1.50
2023-02-19T07:53:07.608Z,1.40
2023-02-19T07:56:12.185Z,1.70
2023-02-19T07:59:13.929Z,1.50
2023-02-19T08:02:35.900Z,1.40
2023-02-19T08:05:40.076Z,1.65
2023-02-19T08:08:41.820Z,1.60
2023-02-19T08:12:02.274Z,1.30
2023-02-19T08:15:04.048Z,1.40
2023-02-19T08:18:05.666Z,1.47
2023-02-19T08:21:07.324Z,1.40
2023-02-19T08:24:09.067Z,1.20
2023-02-19T08:27:10.737Z,1.20
2023-02-19T08:30:12.709Z,1.50
2023-02-19T08:33:17.637Z,1.43
2023-02-19T08:36:19.361Z,1.73
2023-02-19T08:39:21.329Z,1.73
2023-02-19T08:42:22.997Z,1.85
2023-02-19T08:45:24.627Z,1.98
2023-02-19T08:48:26.370Z,2.60
2023-02-19T08:51:28.006Z,3.28
2023-02-19T08:54:30.306Z,3.30
2023-02-19T08:57:32.102Z,3.55
2023-02-19T09:00:33.736Z,3.95
2023-02-19T09:03:35.356Z,4.07
2023-02-19T09:06:39.156Z,4.25
2023-02-19T09:09:41.655Z,4.60
2023-02-19T09:12:43.257Z,4.53
2023-02-19T09:15:45.925Z,4.50
2023-02-19T09:18:47.626Z,4.67
2023-02-19T09:21:49.284Z,5.45
2023-02-19T09:24:50.984Z,5.53
2023-02-19T09:27:56.606Z,5.25
2023-02-19T09:31:04.382Z,5.60
2023-02-19T09:34:06.020Z,5.47
2023-02-19T09:37:08.473Z,5.28
2023-02-19T09:40:10.822Z,5.80
2023-02-19T09:43:19.821Z,5.30
2023-02-19T09:46:31.928Z,5.10
2023-02-19T09:49:40.836Z,5.10
2023-02-19T09:52:56.183Z,5.30
2023-02-19T09:55:57.845Z,5.53
2023-02-19T09:59:00.310Z,5.47
2023-02-19T10:02:24.451Z,5.40
2023-02-19T10:05:26.747Z,6.00
2023-02-19T10:08:33.609Z,5.97
2023-02-19T10:11:35.441Z,6.15
2023-02-19T10:14:42.869Z,5.80
2023-02-19T10:17:44.680Z,6.53
2023-02-19T10:20:47.550Z,5.53
2023-02-19T10:23:56.990Z,5.50
2023-02-19T10:26:58.605Z,5.68
2023-02-19T10:30:01.427Z,5.63
2023-02-19T10:33:10.710Z,5.57
2023-02-19T10:36:25.172Z,5.73
2023-02-19T10:39:45.350Z,5.40
2023-02-19T10:42:54.137Z,5.50
2023-02-19T10:45:55.863Z,5.55
2023-02-19T10:49:00.288Z,5.28
2023-02-19T10:52:34.420Z,4.90
2023-02-19T10:55:38.085Z,3.47
2023-02-19T10:58:42.416Z,3.33
2023-02-19T11:02:03.462Z,2.60
2023-02-19T11:05:17.149Z,2.58
2023-02-19T11:08:23.557Z,2.60
2023-02-19T11:11:52.414Z,2.50
2023-02-19T11:14:54.792Z,2.40
2023-02-19T11:18:10.666Z,2.58
2023-02-19T11:21:28.702Z,2.70
2023-02-19T11:24:37.615Z,2.40
2023-02-19T11:27:55.037Z,2.60
2023-02-19T11:31:14.784Z,3.00
2023-02-19T11:34:24.830Z,2.70
2023-02-19T11:37:26.555Z,3.38
2023-02-19T11:40:45.600Z,2.90
2023-02-19T11:44:05.685Z,2.30
2023-02-19T11:47:32.296Z,2.40
2023-02-19T11:50:55.989Z,1.70
2023-02-19T11:54:13.580Z,1.98
2023-02-19T11:57:15.314Z,2.03
2023-02-19T12:00:19.641Z,1.92
2023-02-19T12:03:55.586Z,2.42
2023-02-19T12:07:00.205Z,2.55
2023-02-19T12:10:25.455Z,2.38
2023-02-19T12:13:39.376Z,2.30
2023-02-19T12:16:46.323Z,2.60
2023-02-19T12:19:57.237Z,2.70
2023-02-19T12:23:35.740Z,2.38
2023-02-19T12:26:55.955Z,2.00
2023-02-19T12:30:09.416Z,2.20
2023-02-19T12:33:29.235Z,2.53
2023-02-19T12:36:52.851Z,2.40
2023-02-19T12:40:13.107Z,2.47
2023-02-19T12:43:21.314Z,2.13
2023-02-19T12:46:32.409Z,2.30
2023-02-19T12:49:42.233Z,1.70
2023-02-19T12:52:47.555Z,1.80
2023-02-19T12:55:49.468Z,1.40
2023-02-19T12:58:56.032Z,0.88
2023-02-19T13:02:11.188Z,0.90
2023-02-19T13:05:24.107Z,1.10
2023-02-19T13:08:36.599Z,1.35
2023-02-19T13:12:10.485Z,1.40
2023-02-19T13:15:20.629Z,1.27
2023-02-19T13:18:37.104Z,1.40
2023-02-19T13:21:57.176Z,1.38
2023-02-19T13:24:59.867Z,1.60
2023-02-19T13:28:26.563Z,1.50
2023-02-19T13:31:49.885Z,1.70
2023-02-19T13:35:28.543Z,1.80
2023-02-19T13:38:30.221Z,2.03
2023-02-19T13:41:41.569Z,1.50
2023-02-19T13:44:48.481Z,1.10
2023-02-19T13:47:50.153Z,1.13
2023-02-19T13:51:18.835Z,1.00
2023-02-19T13:54:28.793Z,0.95
2023-02-19T13:57:30.506Z,1.20
2023-02-19T14:00:50.420Z,0.90
2023-02-19T14:04:08.412Z,1.70
2023-02-19T14:07:09.980Z,1.73
2023-02-19T14:10:14.622Z,1.20
2023-02-19T14:13:51.718Z,1.25
2023-02-19T14:17:25.618Z,0.80
2023-02-19T14:20:41.903Z,0.63
2023-02-19T14:23:44.168Z,0.60
2023-02-19T14:26:45.927Z,0.65
2023-02-19T14:29:48.121Z,0.55
2023-02-19T14:32:54.553Z,0.55
2023-02-19T14:36:06.013Z,0.52
2023-02-19T14:39:10.781Z,0.50
2023-02-19T14:42:22.684Z,0.60
2023-02-19T14:45:27.270Z,0.60
2023-02-19T14:48:38.422Z,0.50
2023-02-19T14:51:44.279Z,0.60
2023-02-19T14:54:54.421Z,0.70
2023-02-19T14:57:59.801Z,0.60
2023-02-19T15:01:01.669Z,0.50
2023-02-19T15:04:04.137Z,0.55
2023-02-19T15:07:11.341Z,0.60
2023-02-19T15:10:14.623Z,0.70
2023-02-19T15:13:22.419Z,0.50
2023-02-19T15:16:27.007Z,0.60
2023-02-19T15:19:31.234Z,0.70
2023-02-19T15:22:33.076Z,0.80
2023-02-19T15:25:37.780Z,0.60
2023-02-19T15:28:39.570Z,0.70
2023-02-19T15:31:55.866Z,1.00
2023-02-19T15:35:02.974Z,0.80
2023-02-19T15:38:04.647Z,0.70
2023-02-19T15:41:06.407Z,0.70
2023-02-19T15:44:28.997Z,0.60
2023-02-19T15:47:35.721Z,0.70
2023-02-19T15:50:44.061Z,0.60
2023-02-19T15:53:51.279Z,0.70
2023-02-19T15:56:56.777Z,0.70
2023-02-19T16:00:26.864Z,0.45
2023-02-19T16:03:30.006Z,0.80
2023-02-19T16:06:50.235Z,0.80
2023-02-19T16:10:16.194Z,0.65
2023-02-19T16:13:26.970Z,0.60
2023-02-19T16:16:35.973Z,0.80
2023-02-19T16:19:46.573Z,0.80
2023-02-19T16:22:48.562Z,0.70
2023-02-19T16:26:00.747Z,1.00
2023-02-19T16:29:02.388Z,0.73
2023-02-19T16:32:07.423Z,0.80
2023-02-19T16:35:39.969Z,1.02
2023-02-19T16:38:41.601Z,1.00
2023-02-19T16:41:46.661Z,0.60
2023-02-19T16:44:48.410Z,0.70
2023-02-19T16:47:51.309Z,0.60
2023-02-19T16:50:53.092Z,0.65
2023-02-19T16:53:54.688Z,0.60
2023-02-19T16:56:56.264Z,0.70
2023-02-19T16:59:57.960Z,0.60
2023-02-19T17:03:03.458Z,0.70
2023-02-19T17:06:05.600Z,0.80
2023-02-19T17:09:08.681Z,0.88
2023-02-19T17:12:16.088Z,1.27
2023-02-19T17:15:18.395Z,0.90
2023-02-19T17:18:20.061Z,1.00
2023-02-19T17:21:33.408Z,0.93
2023-02-19T17:24:35.172Z,0.70
2023-02-19T17:27:37.012Z,0.70
2023-02-19T17:30:40.118Z,0.80
2023-02-19T17:33:42.829Z,0.80
2023-02-19T17:36:47.989Z,0.73
2023-02-19T17:39:49.601Z,0.70
2023-02-19T17:42:51.434Z,0.68
2023-02-19T17:45:53.140Z,0.60
2023-02-19T17:48:55.174Z,0.60
2023-02-19T17:51:57.627Z,2.00
2023-02-19T17:54:59.371Z,2.40
2023-02-19T17:58:01.377Z,1.00
2023-02-19T18:01:03.094Z,0.80
2023-02-19T18:04:05.349Z,0.80
2023-02-19T18:07:07.056Z,0.90
2023-02-19T18:10:09.410Z,1.00
2023-02-19T18:13:11.108Z,0.90
2023-02-19T18:16:15.551Z,0.80
2023-02-19T18:19:17.456Z,0.80
2023-02-19T18:22:19.274Z,1.00
2023-02-19T18:25:21.301Z,0.90
2023-02-19T18:28:22.923Z,0.90
2023-02-19T18:31:24.769Z,1.00
2023-02-19T18:34:29.081Z,0.90
2023-02-19T18:37:32.873Z,1.02
2023-02-19T18:40:34.611Z,1.10
2023-02-19T18:43:36.375Z,0.88
2023-02-19T18:46:39.026Z,0.90
2023-02-19T18:49:40.787Z,0.90
2023-02-19T18:52:42.472Z,1.02
2023-02-19T18:55:44.154Z,1.00
2023-02-19T18:58:45.742Z,1.20
2023-02-19T19:01:47.565Z,1.10
2023-02-19T19:04:51.531Z,1.42
2023-02-19T19:07:59.328Z,1.40
2023-02-19T19:11:01.058Z,1.10
2023-02-19T19:14:02.730Z,1.48
2023-02-19T19:17:04.632Z,1.40
2023-02-19T19:20:07.009Z,1.40
2023-02-19T19:23:08.611Z,1.80
2023-02-19T19:26:11.229Z,1.40
2023-02-19T19:29:15.978Z,1.50
2023-02-19T19:32:17.726Z,1.40
2023-02-19T19:35:20.082Z,1.52
2023-02-19T19:38:21.725Z,2.20
2023-02-19T19:41:23.403Z,1.88
2023-02-19T19:44:25.012Z,2.08
2023-02-19T19:47:26.821Z,1.40
2023-02-19T19:50:28.482Z,1.50
2023-02-19T19:53:30.221Z,1.95
2023-02-19T19:56:31.825Z,1.55
2023-02-19T19:59:33.426Z,1.60
2023-02-19T20:02:35.052Z,1.70
2023-02-19T20:05:36.790Z,1.85
2023-02-19T20:08:38.476Z,1.67
2023-02-19T20:11:58.304Z,1.70
2023-02-19T20:15:00.067Z,1.50
2023-02-19T20:18:02.142Z,1.50
2023-02-19T20:21:03.921Z,1.70
2023-02-19T20:24:05.895Z,2.00
2023-02-19T20:27:08.046Z,1.55
2023-02-19T20:30:13.506Z,2.00
2023-02-19T20:33:15.200Z,2.07
2023-02-19T20:36:17.936Z,2.20
2023-02-19T20:39:21.359Z,1.98
2023-02-19T20:42:22.987Z,2.13
2023-02-19T20:45:24.634Z,2.13
2023-02-19T20:48:26.217Z,2.40
2023-02-19T20:51:27.834Z,2.25
2023-02-19T20:54:32.089Z,2.45
2023-02-19T20:57:33.747Z,2.30
2023-02-19T21:00:35.383Z,1.98
2023-02-19T21:03:37.005Z,2.07
2023-02-19T21:06:38.710Z,2.20
2023-02-19T21:09:40.472Z,2.10
2023-02-19T21:12:42.261Z,2.33
2023-02-19T21:15:44.116Z,2.30
2023-02-19T21:18:45.694Z,2.07
2023-02-19T21:21:47.468Z,2.30
2023-02-19T21:24:53.230Z,1.95
2023-02-19T21:27:54.857Z,2.50
2023-02-19T21:30:56.565Z,2.33
2023-02-19T21:33:58.148Z,2.37
2023-02-19T21:36:59.940Z,2.55
2023-02-19T21:40:01.650Z,2.50
2023-02-19T21:43:04.286Z,2.30
2023-02-19T21:46:05.893Z,2.08
2023-02-19T21:49:07.671Z,2.10
2023-02-19T21:52:09.473Z,1.77
2023-02-19T21:55:11.106Z,1.83
2023-02-19T21:58:12.744Z,1.70
2023-02-19T22:01:14.420Z,1.58
2023-02-19T22:04:19.098Z,1.60
2023-02-19T22:07:21.866Z,1.50
2023-02-19T22:10:23.601Z,1.65
2023-02-19T22:13:25.231Z,1.70
2023-02-19T22:16:28.716Z,1.70
2023-02-19T22:19:30.365Z,1.70
2023-02-19T22:22:32.033Z,1.55
2023-02-19T22:25:33.659Z,1.60
2023-02-19T22:28:35.294Z,1.30
2023-02-19T22:31:37.103Z,1.60
2023-02-19T22:34:40.473Z,1.40
2023-02-19T22:37:42.118Z,1.70
2023-02-19T22:40:43.858Z,1.80
2023-02-19T22:43:46.151Z,1.65
2023-02-19T22:46:57.189Z,1.90
2023-02-19T22:49:58.821Z,1.73
2023-02-19T22:53:00.533Z,1.83
2023-02-19T22:56:02.165Z,1.50
2023-02-19T22:59:03.824Z,1.70
2023-02-19T23:02:05.491Z,1.70
2023-02-19T23:05:07.220Z,1.70
2023-02-19T23:08:08.882Z,1.80
2023-02-19T23:11:11.983Z,1.50
2023-02-19T23:14:17.101Z,1.70
2023-02-19T23:17:20.302Z,1.63
2023-02-19T23:20:21.908Z,2.07
2023-02-19T23:23:23.518Z,1.70
2023-02-19T23:26:25.170Z,2.17
2023-02-19T23:29:28.086Z,1.77
2023-02-19T23:32:29.723Z,2.13
2023-02-19T23:35:32.004Z,1.87
2023-02-19T23:38:33.978Z,1.80
2023-02-19T23:41:35.557Z,1.77
2023-02-19T23:44:37.191Z,1.70
2023-02-19T23:47:38.775Z,1.67
2023-02-19T23:50:40.366Z,1.70
2023-02-19T23:53:42.013Z,1.65
2023-02-19T23:56:43.864Z,1.73
2023-02-19T23:59:47.258Z,1.83
